createdAt,value
2019-01-20T00:00:02.599Z,-5.50
2019-01-20T00:05:11.491Z,-5.40
2019-01-20T00:10:18.859Z,-5.50
2019-01-20T00:15:25.050Z,-5.50
2019-01-20T00:20:32.225Z,-5.60
2019-01-20T00:25:40.741Z,-5.50
2019-01-20T00:30:48.716Z,-5.50
2019-01-20T00:36:15.868Z,-5.40
2019-01-20T00:41:24.713Z,-5.40
2019-01-20T00:46:32.212Z,-5.50
2019-01-20T00:51:39.481Z,-5.50
2019-01-20T00:56:48.480Z,-5.50
2019-01-20T01:01:55.566Z,-5.60
2019-01-20T01:07:04.678Z,-5.70
2019-01-20T01:12:15.984Z,-5.60
2019-01-20T01:17:23.321Z,-5.60
2019-01-20T01:22:30.505Z,-5.60
2019-01-20T01:27:39.347Z,-5.60
2019-01-20T01:32:46.370Z,-5.60
2019-01-20T01:37:52.900Z,-5.60
2019-01-20T01:42:58.779Z,-5.60
2019-01-20T01:48:04.845Z,-5.50
2019-01-20T01:53:10.884Z,-5.40
2019-01-20T01:58:16.755Z,-5.40
2019-01-20T02:03:22.828Z,-5.30
2019-01-20T02:08:30.063Z,-5.30
2019-01-20T02:13:40.299Z,-5.10
2019-01-20T02:18:46.407Z,-5.00
2019-01-20T02:23:53.568Z,-4.90
2019-01-20T02:29:07.768Z,-4.90
2019-01-20T02:34:15.429Z,-4.80
2019-01-20T02:39:21.566Z,-4.70
2019-01-20T02:44:28.962Z,-4.60
2019-01-20T02:49:36.477Z,-4.50
2019-01-20T02:54:43.767Z,-4.50
2019-01-20T02:59:50.968Z,-4.50
2019-01-20T03:04:58.224Z,-4.50
2019-01-20T03:10:06.368Z,-4.50
2019-01-20T03:15:12.891Z,-4.50
2019-01-20T03:20:21.560Z,-4.40
2019-01-20T03:25:28.200Z,-4.50
2019-01-20T03:30:35.693Z,-4.50
2019-01-20T03:35:44.789Z,-4.50
2019-01-20T03:40:50.709Z,-4.40
2019-01-20T03:46:00.406Z,-4.20
2019-01-20T03:51:06.624Z,-4.10
2019-01-20T03:56:13.808Z,-4.10
2019-01-20T04:01:21.698Z,-4.20
2019-01-20T04:06:29.115Z,-4.30
2019-01-20T04:11:36.838Z,-4.20
2019-01-20T04:16:43.271Z,-4.20
2019-01-20T04:21:50.453Z,-4.20
2019-01-20T04:26:58.068Z,-4.30
2019-01-20T04:32:05.172Z,-4.40
2019-01-20T04:37:14.257Z,-4.40
2019-01-20T04:42:28.754Z,-4.30
2019-01-20T04:47:29.557Z,-4.30
2019-01-20T04:52:37.173Z,-4.20
2019-01-20T04:57:47.475Z,-4.10
2019-01-20T05:02:54.387Z,-4.10
2019-01-20T05:08:02.447Z,-4.00
2019-01-20T05:13:09.764Z,-3.90
2019-01-20T05:18:16.836Z,-3.90
2019-01-20T05:23:24.012Z,-3.90
2019-01-20T05:28:29.949Z,-3.80
2019-01-20T05:33:38.024Z,-3.80
2019-01-20T05:38:45.905Z,-3.80
2019-01-20T05:43:52.238Z,-3.70
2019-01-20T05:48:58.151Z,-3.60
2019-01-20T05:54:05.179Z,-3.60
2019-01-20T05:59:13.079Z,-3.60
2019-01-20T06:04:20.229Z,-3.80
2019-01-20T06:09:26.550Z,-3.90
2019-01-20T06:14:34.435Z,-4.00
2019-01-20T06:19:41.725Z,-3.90
2019-01-20T06:24:49.869Z,-4.00
2019-01-20T06:29:56.336Z,-4.00
2019-01-20T06:35:05.583Z,-3.90
2019-01-20T06:40:32.107Z,-3.80
2019-01-20T06:45:39.958Z,-3.80
2019-01-20T06:50:45.927Z,-3.80
2019-01-20T06:55:51.995Z,-3.90
2019-01-20T07:00:59.112Z,-3.90
2019-01-20T07:06:06.413Z,-3.80
2019-01-20T07:11:13.871Z,-3.80
2019-01-20T07:16:21.644Z,-3.80
2019-01-20T07:21:28.336Z,-3.80
2019-01-20T07:26:34.543Z,-3.80
2019-01-20T07:31:41.462Z,-3.70
2019-01-20T07:36:48.809Z,-3.50
2019-01-20T07:41:54.940Z,-3.40
2019-01-20T07:47:02.037Z,-3.30
2019-01-20T07:52:09.014Z,-3.40
2019-01-20T07:57:16.760Z,-3.30
2019-01-20T08:02:24.486Z,-3.20
2019-01-20T08:07:32.043Z,-3.10
2019-01-20T08:12:39.278Z,-3.00
2019-01-20T08:17:46.384Z,-2.90
2019-01-20T08:22:54.082Z,-2.80
2019-01-20T08:28:02.002Z,-2.80
2019-01-20T08:33:10.305Z,-2.70
2019-01-20T08:38:17.800Z,-2.50
2019-01-20T08:43:31.557Z,-2.30
2019-01-20T08:48:33.820Z,-2.10
2019-01-20T08:53:40.636Z,-2.10
2019-01-20T08:58:46.536Z,-1.90
2019-01-20T09:03:53.487Z,-1.90
2019-01-20T09:09:01.120Z,-1.70
2019-01-20T09:14:08.480Z,-1.50
2019-01-20T09:19:15.326Z,-1.40
2019-01-20T09:24:22.730Z,-1.30
2019-01-20T09:29:30.641Z,-1.10
2019-01-20T09:34:36.848Z,-1.00
2019-01-20T09:39:44.246Z,-1.00
2019-01-20T09:44:51.190Z,-0.90
2019-01-20T09:49:59.409Z,-0.80
2019-01-20T09:55:08.410Z,-0.70
2019-01-20T10:00:16.823Z,-0.60
2019-01-20T10:05:23.390Z,-0.50
2019-01-20T10:10:29.866Z,-0.60
2019-01-20T10:15:44.173Z,-0.20
2019-01-20T10:20:51.116Z,0.10
2019-01-20T10:25:57.422Z,0.30
2019-01-20T10:31:05.977Z,0.40
2019-01-20T10:36:12.559Z,0.50
2019-01-20T10:41:20.418Z,0.40
2019-01-20T10:46:30.834Z,0.40
2019-01-20T10:51:38.339Z,0.70
2019-01-20T10:56:45.990Z,1.20
2019-01-20T11:01:53.393Z,1.20
2019-01-20T11:07:00.828Z,1.70
2019-01-20T11:12:08.584Z,2.30
2019-01-20T11:17:15.034Z,2.40
2019-01-20T11:22:23.301Z,2.20
2019-01-20T11:27:30.655Z,1.90
2019-01-20T11:32:42.303Z,2.10
2019-01-20T11:37:45.534Z,2.40
2019-01-20T11:42:53.788Z,2.90
2019-01-20T11:47:59.760Z,3.20
2019-01-20T11:53:05.927Z,3.40
2019-01-20T11:58:15.069Z,3.00
2019-01-20T12:03:21.111Z,2.80
2019-01-20T12:08:30.703Z,2.70
2019-01-20T12:13:37.033Z,2.30
2019-01-20T12:18:44.676Z,2.00
2019-01-20T12:23:51.983Z,1.90
2019-01-20T12:28:58.499Z,2.30
2019-01-20T12:34:05.615Z,3.40
2019-01-20T12:39:12.618Z,4.20
2019-01-20T12:44:21.098Z,3.90
2019-01-20T12:49:28.373Z,4.10
2019-01-20T12:54:35.473Z,3.50
2019-01-20T12:59:43.216Z,3.00
2019-01-20T13:04:51.128Z,2.50
2019-01-20T13:09:58.417Z,2.10
2019-01-20T13:15:05.403Z,2.10
2019-01-20T13:20:16.721Z,2.00
2019-01-20T13:25:25.074Z,2.10
2019-01-20T13:30:31.439Z,2.10
2019-01-20T13:35:40.071Z,2.00
2019-01-20T13:40:49.309Z,1.90
2019-01-20T13:45:56.652Z,2.20
2019-01-20T13:51:02.681Z,2.10
2019-01-20T13:56:09.037Z,2.30
2019-01-20T14:01:17.027Z,2.40
2019-01-20T14:06:24.110Z,2.20
2019-01-20T14:11:30.135Z,2.10
2019-01-20T14:16:37.553Z,2.10
2019-01-20T14:21:45.030Z,1.90
2019-01-20T14:26:53.726Z,1.70
2019-01-20T14:32:01.072Z,1.60
2019-01-20T14:37:08.115Z,1.70
2019-01-20T14:42:15.305Z,1.50
2019-01-20T14:47:22.983Z,1.40
2019-01-20T14:52:30.845Z,1.20
2019-01-20T14:57:37.280Z,1.10
2019-01-20T15:02:45.241Z,1.10
2019-01-20T15:07:51.602Z,1.00
2019-01-20T15:12:58.826Z,0.80
2019-01-20T15:18:06.688Z,0.80
2019-01-20T15:23:13.728Z,0.70
2019-01-20T15:28:21.117Z,0.70
2019-01-20T15:33:28.311Z,0.70
2019-01-20T15:38:36.579Z,0.70
2019-01-20T15:43:44.118Z,0.70
2019-01-20T15:48:51.572Z,0.70
2019-01-20T15:53:59.183Z,0.60
2019-01-20T15:59:08.200Z,0.50
2019-01-20T16:04:14.682Z,0.40
2019-01-20T16:09:22.051Z,0.40
2019-01-20T16:14:28.419Z,0.30
2019-01-20T16:19:36.056Z,0.30
2019-01-20T16:24:42.861Z,0.30
2019-01-20T16:29:49.290Z,0.30
2019-01-20T16:34:55.965Z,0.20
2019-01-20T16:40:02.531Z,0.20
2019-01-20T16:45:12.140Z,0.20
2019-01-20T16:50:21.205Z,0.00
2019-01-20T16:55:31.033Z,0.00
2019-01-20T17:00:39.977Z,-0.20
2019-01-20T17:05:59.422Z,-0.20
2019-01-20T17:11:09.207Z,-0.20
2019-01-20T17:16:16.785Z,-0.20
2019-01-20T17:21:25.443Z,-0.20
2019-01-20T17:26:36.488Z,-0.30
2019-01-20T17:31:42.336Z,-0.30
2019-01-20T17:36:49.998Z,-0.30
2019-01-20T17:41:57.446Z,-0.40
2019-01-20T17:47:06.966Z,-0.30
2019-01-20T17:52:13.895Z,-0.40
2019-01-20T17:57:27.106Z,-0.40
2019-01-20T18:02:35.911Z,-0.40
2019-01-20T18:07:42.989Z,-0.40
2019-01-20T18:12:53.231Z,-0.50
2019-01-20T18:17:59.411Z,-0.60
2019-01-20T18:23:05.774Z,-0.70
2019-01-20T18:28:13.866Z,-0.70
2019-01-20T18:33:19.675Z,-0.70
2019-01-20T18:38:26.359Z,-0.80
2019-01-20T18:43:33.279Z,-0.80
2019-01-20T18:48:40.975Z,-0.80
2019-01-20T18:53:48.829Z,-0.90
2019-01-20T18:58:56.003Z,-0.90
2019-01-20T19:04:03.526Z,-1.00
2019-01-20T19:09:10.007Z,-1.00
2019-01-20T19:14:17.479Z,-0.90
2019-01-20T19:19:26.293Z,-0.90
2019-01-20T19:24:32.974Z,-0.90
2019-01-20T19:29:40.923Z,-0.90
2019-01-20T19:34:48.612Z,-0.90
2019-01-20T19:39:56.080Z,-0.80
2019-01-20T19:45:03.820Z,-0.80
2019-01-20T19:50:10.975Z,-0.80
2019-01-20T19:55:24.026Z,-0.80
2019-01-20T20:00:31.180Z,-0.90
2019-01-20T20:05:40.739Z,-0.90
2019-01-20T20:10:48.210Z,-1.10
2019-01-20T20:15:55.168Z,-1.00
2019-01-20T20:21:02.779Z,-0.90
2019-01-20T20:26:09.171Z,-0.90
2019-01-20T20:31:16.563Z,-1.00
2019-01-20T20:36:26.011Z,-1.00
2019-01-20T20:41:33.711Z,-1.10
2019-01-20T20:46:41.485Z,-1.10
2019-01-20T20:51:51.110Z,-1.10
2019-01-20T20:56:57.974Z,-1.20
2019-01-20T21:02:05.346Z,-1.20
2019-01-20T21:07:11.568Z,-1.20
2019-01-20T21:12:17.951Z,-1.20
2019-01-20T21:17:25.552Z,-1.10
2019-01-20T21:22:32.897Z,-1.30
2019-01-20T21:27:40.784Z,-1.40
2019-01-20T21:32:46.867Z,-1.30
2019-01-20T21:37:54.971Z,-1.20
2019-01-20T21:43:02.917Z,-1.10
2019-01-20T21:48:09.209Z,-1.10
2019-01-20T21:53:16.577Z,-0.90
2019-01-20T21:58:23.384Z,-0.90
2019-01-20T22:03:31.143Z,-0.90
2019-01-20T22:08:38.970Z,-0.90
2019-01-20T22:13:46.508Z,-0.80
2019-01-20T22:18:52.720Z,-0.80
2019-01-20T22:24:00.280Z,-0.70
2019-01-20T22:29:07.760Z,-0.70
2019-01-20T22:34:14.670Z,-0.60
2019-01-20T22:39:22.078Z,-0.50
2019-01-20T22:44:28.756Z,-0.50
2019-01-20T22:49:36.387Z,-0.40
2019-01-20T22:54:43.793Z,-0.40
2019-01-20T22:59:51.139Z,-0.30
2019-01-20T23:04:57.616Z,-0.30
2019-01-20T23:10:06.142Z,-0.30
2019-01-20T23:15:12.534Z,-0.40
2019-01-20T23:20:18.884Z,-0.30
2019-01-20T23:25:25.685Z,-0.40
2019-01-20T23:30:33.569Z,-0.30
2019-01-20T23:35:40.014Z,-0.30
2019-01-20T23:40:46.267Z,-0.30
2019-01-20T23:45:53.754Z,-0.40
2019-01-20T23:51:00.697Z,-0.30
2019-01-20T23:56:08.545Z,-0.30
